Time;durP1;ratioP1;P1;durP2;ratioP2;P2;SDS_P1;SDS_P2;PMS_P1;PMS_P2;Temp;Humidity;BMP_temperature;BMP_pressure;BME280_temperature;BME280_humidity;BME280_pressure;Samples;Min_cycle;Max_cycle;Signal;HPM_P1;HPM_P2
2022/03/03 00:00:13;;;;;;;31.85;16.52;;;;;;;5.00;66.71;100440.63;5013396;28;20029;-76
2022/03/03 00:02:40;;;;;;;16.15;11.00;;;;;;;4.97;66.43;100435.50;5012220;28;20464;-77
2022/03/03 00:05:06;;;;;;;16.60;10.98;;;;;;;5.03;66.50;100424.44;5013506;28;20034;-76
2022/03/03 00:07:33;;;;;;;18.30;11.13;;;;;;;4.92;66.02;100435.75;5012217;28;20471;-77
2022/03/03 00:09:59;;;;;;;16.55;11.00;;;;;;;4.84;66.69;100422.06;5013328;28;20411;-76
2022/03/03 00:12:24;;;;;;;13.82;10.05;;;;;;;4.93;66.74;100425.97;5012065;28;20531;-75
2022/03/03 00:14:50;;;;;;;17.70;11.20;;;;;;;4.96;66.43;100425.78;5012313;28;20025;-75
2022/03/03 00:17:15;;;;;;;17.13;11.38;;;;;;;4.92;66.57;100434.94;5012974;28;20152;-76
2022/03/03 00:19:42;;;;;;;13.85;9.98;;;;;;;4.94;66.27;100425.88;5011774;28;20490;-75
2022/03/03 00:22:09;;;;;;;17.23;11.27;;;;;;;4.92;65.98;100427.75;5013229;28;20076;-75
2022/03/03 00:24:35;;;;;;;16.63;11.05;;;;;;;4.78;66.65;100429.56;5013245;28;20033;-75
2022/03/03 00:27:00;;;;;;;15.15;11.07;;;;;;;4.85;66.49;100430.91;5013105;28;20029;-76
2022/03/03 00:29:26;;;;;;;15.45;9.70;;;;;;;4.86;66.53;100416.66;5011631;28;20116;-74
2022/03/03 00:31:51;;;;;;;17.42;11.65;;;;;;;4.81;66.35;100432.03;5012873;28;20096;-76
2022/03/03 00:34:17;;;;;;;13.68;10.02;;;;;;;4.79;66.36;100417.97;5011349;28;20033;-75
2022/03/03 00:36:43;;;;;;;17.85;11.18;;;;;;;4.76;66.25;100431.47;5011081;28;20488;-75
2022/03/03 00:39:09;;;;;;;18.02;11.63;;;;;;;4.62;66.35;100423.44;5012805;28;20032;-75
2022/03/03 00:41:34;;;;;;;18.10;11.93;;;;;;;4.68;66.56;100439.06;5011392;28;20029;-74
2022/03/03 00:44:00;;;;;;;17.70;11.48;;;;;;;4.55;66.74;100436.28;5011259;28;20041;-75
2022/03/03 00:46:26;;;;;;;17.05;10.95;;;;;;;4.65;67.31;100433.91;5012454;28;20116;-75
2022/03/03 00:48:54;;;;;;;15.48;10.55;;;;;;;4.74;66.47;100431.53;5011357;28;20058;-75
2022/03/03 00:51:20;;;;;;;14.68;10.35;;;;;;;4.75;66.45;100419.09;5011186;28;20029;-75
2022/03/03 00:53:47;;;;;;;16.73;11.57;;;;;;;4.78;66.49;100425.09;5011242;28;20028;-76
2022/03/03 00:56:12;;;;;;;18.20;11.43;;;;;;;4.80;66.34;100425.00;5012423;28;20022;-74
2022/03/03 00:58:38;;;;;;;15.35;10.77;;;;;;;4.77;66.07;100427.88;5012121;28;20091;-75
2022/03/03 01:01:03;;;;;;;14.02;9.60;;;;;;;4.86;66.31;100414.00;5011111;28;20029;-75
2022/03/03 01:03:29;;;;;;;17.05;11.48;;;;;;;4.90;66.10;100423.47;5010986;28;20029;-75
2022/03/03 01:05:54;;;;;;;15.93;10.60;;;;;;;4.92;65.78;100406.44;5012242;28;20041;-75
2022/03/03 01:08:20;;;;;;;18.67;12.30;;;;;;;4.99;65.48;100419.38;5012060;28;20033;-75
2022/03/03 01:10:45;;;;;;;14.60;10.15;;;;;;;4.89;65.48;100421.78;5012158;28;20034;-75
2022/03/03 01:13:11;;;;;;;15.93;10.05;;;;;;;4.72;65.75;100405.97;5010972;28;20133;-75
2022/03/03 01:15:36;;;;;;;17.30;10.85;;;;;;;4.65;65.77;100396.63;5011184;28;20486;-75
2022/03/03 01:18:02;;;;;;;16.10;10.88;;;;;;;4.63;66.23;100412.69;5013489;28;20017;-75
2022/03/03 01:20:28;;;;;;;15.07;10.27;;;;;;;4.71;66.00;100393.63;5010626;28;20380;-75
2022/03/03 01:22:55;;;;;;;13.73;9.18;;;;;;;4.66;66.08;100406.34;5010425;28;20029;-75
2022/03/03 01:25:20;;;;;;;15.23;9.82;;;;;;;4.60;66.04;100396.06;5011886;28;20054;-75
2022/03/03 01:27:46;;;;;;;16.23;10.98;;;;;;;4.56;65.97;100397.16;5011696;28;20205;-75
2022/03/03 01:30:11;;;;;;;14.85;10.70;;;;;;;4.49;66.18;100415.34;5010546;28;20029;-75
2022/03/03 01:32:37;;;;;;;14.27;10.35;;;;;;;4.49;66.12;100407.38;5010436;28;20504;-75
2022/03/03 01:35:03;;;;;;;15.90;9.95;;;;;;;4.54;66.44;100401.75;5011626;28;20022;-75
2022/03/03 01:37:29;;;;;;;17.58;11.27;;;;;;;4.38;66.36;100386.69;5011899;28;20026;-75
2022/03/03 01:39:54;;;;;;;14.82;10.13;;;;;;;4.40;65.95;100403.41;5011621;28;20416;-75
2022/03/03 01:42:20;;;;;;;14.60;9.63;;;;;;;4.33;66.42;100398.56;5010635;28;20172;-76
2022/03/03 01:44:46;;;;;;;12.95;9.68;;;;;;;4.32;66.25;100395.03;5011813;28;20125;-75
2022/03/03 01:47:21;;;;;;;16.58;10.20;;;;;;;4.27;66.36;100402.47;5011574;28;20042;-75
2022/03/03 01:49:48;;;;;;;13.93;9.68;;;;;;;4.21;66.60;100392.16;5014283;28;20112;-75
2022/03/03 01:52:13;;;;;;;17.55;11.02;;;;;;;4.26;67.26;100400.72;5014331;28;20076;-75
2022/03/03 01:54:39;;;;;;;17.45;10.55;;;;;;;4.29;66.72;100392.56;5015698;28;20049;-75
2022/03/03 01:57:06;;;;;;;13.43;8.93;;;;;;;4.28;66.57;100398.00;5015668;28;20026;-75
2022/03/03 01:59:33;;;;;;;17.40;10.20;;;;;;;4.32;66.22;100395.03;5015602;28;20064;-75
2022/03/03 02:01:59;;;;;;;18.08;10.90;;;;;;;4.33;66.00;100410.09;5015691;28;20029;-75
2022/03/03 02:04:25;;;;;;;17.75;10.07;;;;;;;4.20;66.21;100395.78;5015483;28;20030;-75
2022/03/03 02:06:52;;;;;;;16.27;9.45;;;;;;;4.21;66.49;100413.47;5015351;28;20480;-76
2022/03/03 02:09:18;;;;;;;16.60;10.13;;;;;;;4.15;66.36;100395.19;5015404;28;20180;-74
2022/03/03 02:11:46;;;;;;;14.15;9.18;;;;;;;4.07;66.58;100394.75;5015427;28;20057;-74
2022/03/03 02:14:13;;;;;;;14.60;10.05;;;;;;;4.06;66.72;100393.06;5014184;28;20026;-75
2022/03/03 02:16:39;;;;;;;18.45;11.02;;;;;;;4.00;66.82;100390.78;5015264;28;20026;-74
2022/03/03 02:19:05;;;;;;;15.15;10.05;;;;;;;4.04;66.95;100410.03;5015258;28;20071;-75
2022/03/03 02:21:31;;;;;;;15.10;9.68;;;;;;;3.98;66.92;100395.31;5015322;28;20021;-76
2022/03/03 02:23:56;;;;;;;15.25;10.18;;;;;;;3.96;66.87;100397.19;5015143;28;20026;-75
2022/03/03 02:26:23;;;;;;;16.77;11.45;;;;;;;3.82;67.12;100397.97;5015224;28;20022;-75
2022/03/03 02:28:50;;;;;;;13.38;8.63;;;;;;;3.92;67.55;100408.09;5013728;28;20115;-75
2022/03/03 02:31:17;;;;;;;13.27;9.38;;;;;;;3.96;67.16;100397.19;5015256;28;20109;-75
2022/03/03 02:33:43;;;;;;;28.17;12.10;;;;;;;4.02;67.44;100401.31;5015063;28;20030;-75
2022/03/03 02:36:22;;;;;;;15.15;9.65;;;;;;;4.09;66.72;100400.88;5015264;28;20025;-75
2022/03/03 02:38:53;;;;;;;16.75;10.23;;;;;;;4.09;66.94;100395.56;5013578;28;20017;-75
2022/03/03 02:41:20;;;;;;;19.13;10.38;;;;;;;4.08;66.88;100391.16;5015007;28;20365;-75
2022/03/03 02:43:46;;;;;;;15.68;10.40;;;;;;;4.23;66.46;100400.06;5015014;28;20025;-75
2022/03/03 02:46:12;;;;;;;14.27;8.80;;;;;;;4.27;66.77;100391.81;5014584;28;20054;-75
2022/03/03 02:48:38;;;;;;;15.70;9.52;;;;;;;4.35;66.14;100396.66;5014767;28;20032;-75
2022/03/03 02:51:05;;;;;;;18.58;11.15;;;;;;;4.49;65.88;100401.19;5014990;28;20030;-75
2022/03/03 02:53:32;;;;;;;13.82;9.25;;;;;;;4.50;65.61;100402.88;5015145;28;20025;-76
2022/03/03 02:55:57;;;;;;;14.85;8.95;;;;;;;4.56;65.30;100392.72;5013506;28;20117;-76
2022/03/03 02:58:23;;;;;;;17.02;10.15;;;;;;;4.48;65.00;100388.81;5014528;28;20097;-75
2022/03/03 03:00:49;;;;;;;12.20;8.38;;;;;;;4.61;65.03;100395.13;5012953;28;20404;-75
2022/03/03 03:03:16;;;;;;;13.45;9.55;;;;;;;4.57;64.80;100390.91;5014564;28;20025;-75
2022/03/03 03:05:41;;;;;;;12.68;9.65;;;;;;;4.48;64.77;100394.13;5014864;28;20072;-75
2022/03/03 03:08:07;;;;;;;11.75;8.20;;;;;;;4.52;64.52;100398.31;5014403;28;20065;-75
2022/03/03 03:10:33;;;;;;;14.52;9.43;;;;;;;4.59;64.81;100397.84;5013168;28;20061;-76
2022/03/03 03:12:59;;;;;;;13.98;9.25;;;;;;;4.62;64.43;100399.47;5013241;28;20064;-76
2022/03/03 03:15:24;;;;;;;12.23;8.50;;;;;;;4.56;64.32;100386.53;5014466;28;20417;-75
2022/03/03 03:17:50;;;;;;;15.52;8.30;;;;;;;4.60;64.37;100398.72;5014267;28;20028;-75
2022/03/03 03:20:16;;;;;;;14.02;9.60;;;;;;;4.59;64.37;100394.31;5014776;28;20088;-75
2022/03/03 03:22:42;;;;;;;11.77;8.90;;;;;;;4.70;64.52;100403.41;5014287;28;20558;-77
2022/03/03 03:25:10;;;;;;;14.05;9.02;;;;;;;4.76;64.17;100395.03;5014001;28;20052;-76
2022/03/03 03:27:37;;;;;;;18.17;9.98;;;;;;;4.72;64.07;100397.97;5013880;28;20096;-75
2022/03/03 03:30:05;;;;;;;15.30;10.00;;;;;;;4.63;63.34;100399.38;5012716;28;20480;-76
2022/03/03 03:32:30;;;;;;;15.95;9.98;;;;;;;4.61;63.73;100401.31;5013914;28;20033;-76
2022/03/03 03:34:56;;;;;;;14.65;9.68;;;;;;;4.60;63.88;100407.56;5013962;28;20030;-75
2022/03/03 03:37:21;;;;;;;14.90;9.07;;;;;;;4.56;63.94;100399.84;5013985;28;20045;-75
2022/03/03 03:39:47;;;;;;;15.35;10.07;;;;;;;4.53;64.25;100402.69;5013844;28;20038;-75
2022/03/03 03:42:12;;;;;;;14.00;8.75;;;;;;;4.43;64.00;100390.91;5013930;28;20052;-74
2022/03/03 03:44:38;;;;;;;14.88;10.35;;;;;;;4.47;64.16;100405.72;5013765;28;20026;-74
2022/03/03 03:47:05;;;;;;;15.20;10.15;;;;;;;4.38;64.05;100405.31;5013298;28;20076;-76
2022/03/03 03:49:31;;;;;;;15.50;10.43;;;;;;;4.34;64.30;100403.78;5012324;28;20030;-76
2022/03/03 03:51:56;;;;;;;14.02;9.77;;;;;;;4.24;64.35;100401.78;5013557;28;20048;-75
2022/03/03 03:54:22;;;;;;;15.68;10.05;;;;;;;4.22;64.74;100383.22;5013137;28;20041;-75
2022/03/03 03:56:47;;;;;;;15.70;10.27;;;;;;;4.22;64.85;100407.16;5012865;28;20096;-75
2022/03/03 03:59:13;;;;;;;15.52;10.25;;;;;;;4.25;64.69;100393.69;5011431;28;20022;-76
2022/03/03 04:01:38;;;;;;;16.02;10.57;;;;;;;4.29;64.59;100397.88;5012946;28;20022;-76
2022/03/03 04:04:04;;;;;;;15.90;9.90;;;;;;;4.09;64.73;100389.38;5011769;28;20026;-76
2022/03/03 04:06:29;;;;;;;17.50;10.75;;;;;;;4.12;64.77;100391.84;5012771;28;20396;-75
2022/03/03 04:08:55;;;;;;;15.25;10.32;;;;;;;4.18;65.00;100403.00;5011711;28;20030;-75
2022/03/03 04:11:20;;;;;;;16.00;10.68;;;;;;;4.20;64.85;100387.78;5012250;28;20026;-76
2022/03/03 04:13:46;;;;;;;15.23;9.20;;;;;;;4.20;64.82;100395.78;5013164;28;20022;-75
2022/03/03 04:16:11;;;;;;;17.83;10.63;;;;;;;4.20;64.63;100403.75;5012959;28;20038;-76
2022/03/03 04:18:37;;;;;;;15.90;10.30;;;;;;;4.12;64.58;100398.03;5012625;28;20070;-76
2022/03/03 04:21:04;;;;;;;15.20;9.88;;;;;;;4.14;64.84;100401.44;5012607;28;20040;-76
2022/03/03 04:23:29;;;;;;;15.20;10.00;;;;;;;4.21;65.13;100396.63;5012527;28;20771;-75
2022/03/03 04:25:55;;;;;;;14.38;9.93;;;;;;;4.24;65.17;100399.13;5012491;28;20022;-76
2022/03/03 04:28:20;;;;;;;13.15;8.80;;;;;;;4.23;64.78;100400.91;5011466;28;20048;-77
2022/03/03 04:30:46;;;;;;;16.92;10.32;;;;;;;4.34;64.65;100398.47;5012895;28;20022;-76
2022/03/03 04:33:11;;;;;;;14.13;9.57;;;;;;;4.50;64.64;100392.22;5012391;28;20469;-76
2022/03/03 04:35:37;;;;;;;11.93;8.23;;;;;;;4.57;64.41;100404.22;5012256;28;20018;-75
2022/03/03 04:38:03;;;;;;;15.40;9.73;;;;;;;4.62;63.64;100386.16;5012173;28;20014;-75
2022/03/03 04:40:28;;;;;;;14.07;9.48;;;;;;;4.62;63.07;100388.81;5012639;28;20030;-75
2022/03/03 04:42:54;;;;;;;11.80;8.00;;;;;;;4.58;62.96;100384.66;5012561;28;20021;-75
2022/03/03 04:45:19;;;;;;;21.88;8.00;;;;;;;4.66;62.99;100387.69;5011028;28;20025;-75
2022/03/03 04:47:45;;;;;;;10.65;7.95;;;;;;;4.61;62.77;100389.78;5012190;28;20029;-75
2022/03/03 04:50:10;;;;;;;13.57;7.97;;;;;;;4.64;62.58;100393.13;5012120;28;20021;-75
2022/03/03 04:52:36;;;;;;;13.00;8.00;;;;;;;4.64;62.54;100376.28;5012089;28;20194;-75
2022/03/03 04:55:04;;;;;;;11.75;8.80;;;;;;;4.69;62.11;100387.50;5011511;28;20033;-74
2022/03/03 04:57:31;;;;;;;11.43;6.57;;;;;;;4.67;61.51;100376.09;5012602;28;20102;-76
2022/03/03 04:59:56;;;;;;;12.30;8.40;;;;;;;4.61;61.46;100397.78;5012267;28;20049;-75
2022/03/03 05:02:22;;;;;;;11.15;7.25;;;;;;;4.55;61.97;100390.16;5012190;28;20131;-75
2022/03/03 05:04:48;;;;;;;10.77;7.53;;;;;;;4.56;61.78;100394.50;5012468;28;20123;-75
2022/03/03 05:07:14;;;;;;;11.98;7.85;;;;;;;4.62;61.57;100388.81;5012171;28;20488;-75
2022/03/03 05:09:40;;;;;;;14.65;7.88;;;;;;;4.65;61.65;100392.16;5010668;28;20033;-76
2022/03/03 05:12:05;;;;;;;11.77;7.53;;;;;;;4.57;61.20;100383.78;5012258;28;20064;-75
2022/03/03 05:14:31;;;;;;;14.73;8.65;;;;;;;4.68;61.06;100399.13;5010745;28;20057;-74
2022/03/03 05:16:57;;;;;;;20.58;9.88;;;;;;;4.65;61.02;100404.59;5010853;28;20026;-74
2022/03/03 05:19:22;;;;;;;15.93;9.52;;;;;;;4.59;60.88;100397.00;5012134;28;20079;-75
2022/03/03 05:21:48;;;;;;;14.48;9.88;;;;;;;4.63;60.75;100398.53;5010502;28;20029;-76
2022/03/03 05:24:13;;;;;;;17.45;10.15;;;;;;;4.63;61.12;100404.72;5010585;28;20033;-76
2022/03/03 05:26:39;;;;;;;16.35;9.98;;;;;;;4.65;60.73;100401.94;5011902;28;20455;-75
2022/03/03 05:29:04;;;;;;;14.80;9.23;;;;;;;4.63;60.82;100407.38;5011498;28;20030;-75
2022/03/03 05:31:30;;;;;;;16.05;9.10;;;;;;;4.60;60.89;100415.56;5011705;28;20105;-75
2022/03/03 05:33:55;;;;;;;13.98;9.23;;;;;;;4.65;60.76;100404.59;5011610;28;20026;-75
2022/03/03 05:36:24;;;;;;;14.40;9.52;;;;;;;4.65;60.89;100413.47;5011600;28;20026;-75
2022/03/03 05:38:49;;;;;;;17.48;9.00;;;;;;;4.71;61.02;100409.59;5011540;28;20018;-76
2022/03/03 05:41:15;;;;;;;23.27;10.38;;;;;;;4.65;61.14;100413.47;5010873;28;20088;-81
2022/03/03 05:43:41;;;;;;;14.10;8.63;;;;;;;4.70;61.03;100426.50;5011636;28;20500;-77
2022/03/03 05:46:07;;;;;;;16.83;10.95;;;;;;;4.68;61.28;100420.44;5011609;28;20045;-78
2022/03/03 05:48:35;;;;;;;18.38;11.85;;;;;;;4.68;60.92;100417.78;5010649;28;20103;-83
2022/03/03 05:51:01;;;;;;;20.75;10.98;;;;;;;4.74;60.73;100406.75;5012653;28;20022;-80
2022/03/03 05:53:27;;;;;;;13.82;9.45;;;;;;;4.77;60.71;100406.56;5011983;28;20507;-79
2022/03/03 05:55:56;;;;;;;15.90;10.40;;;;;;;4.94;61.10;100428.53;5011800;28;20101;-78
2022/03/03 05:58:25;;;;;;;19.30;12.60;;;;;;;4.89;60.78;100429.78;5010302;28;20025;-77
2022/03/03 06:00:54;;;;;;;19.92;12.68;;;;;;;5.05;60.74;100424.34;5011623;28;20064;-78
2022/03/03 06:03:20;;;;;;;13.07;9.80;;;;;;;5.14;60.22;100429.09;5011388;28;20480;-77
2022/03/03 06:05:50;;;;;;;15.27;10.73;;;;;;;5.25;59.73;100440.84;5011596;28;20037;-77
2022/03/03 06:08:31;;;;;;;20.23;11.65;;;;;;;5.30;59.68;100441.38;5011336;28;20034;-78
2022/03/03 06:11:02;;;;;;;16.92;9.00;;;;;;;5.37;59.64;100445.41;5011511;28;20057;-77
2022/03/03 06:13:37;;;;;;;19.23;11.13;;;;;;;5.39;59.81;100447.94;5011442;28;20107;-77
2022/03/03 06:16:04;;;;;;;20.00;11.32;;;;;;;5.46;59.44;100441.28;5010079;28;20021;-76
2022/03/03 06:18:32;;;;;;;17.02;10.75;;;;;;;5.49;59.48;100444.63;5011351;28;20010;-76
2022/03/03 06:20:59;;;;;;;18.10;10.88;;;;;;;5.61;59.39;100442.97;5011284;28;20027;-77
2022/03/03 06:23:24;;;;;;;25.92;15.75;;;;;;;5.61;59.20;100431.44;5009750;28;20064;-75
2022/03/03 06:26:09;;;;;;;26.38;11.85;;;;;;;5.64;59.31;100431.25;5010152;28;20053;-77
2022/03/03 06:28:35;;;;;;;27.80;12.02;;;;;;;5.69;59.43;100439.84;5009930;28;20022;-77
2022/03/03 06:31:00;;;;;;;26.23;11.95;;;;;;;5.75;59.10;100444.78;5011248;28;20026;-77
2022/03/03 06:33:26;;;;;;;14.82;11.02;;;;;;;5.81;59.10;100452.38;5009842;28;20116;-77
2022/03/03 06:35:52;;;;;;;21.38;11.23;;;;;;;5.78;58.92;100452.59;5012546;28;20030;-77
2022/03/03 06:38:18;;;;;;;16.10;9.95;;;;;;;5.84;59.01;100457.53;5015216;28;20022;-78
2022/03/03 06:40:45;;;;;;;25.30;13.07;;;;;;;5.84;58.64;100452.19;5015356;28;20040;-78
2022/03/03 06:43:11;;;;;;;25.13;12.05;;;;;;;5.87;58.90;100447.50;5015620;28;20054;-80
2022/03/03 06:45:37;;;;;;;22.17;13.60;;;;;;;5.99;58.63;100446.72;5015687;28;20061;-79
2022/03/03 06:48:06;;;;;;;23.45;14.15;;;;;;;5.85;58.76;100433.41;5015155;28;20407;-81
2022/03/03 06:50:40;;;;;;;21.63;12.23;;;;;;;5.85;58.69;100435.19;5014399;28;20025;-78
2022/03/03 06:53:09;;;;;;;33.63;14.18;;;;;;;5.88;58.72;100429.69;5014943;28;20022;-79
2022/03/03 06:55:36;;;;;;;25.15;13.65;;;;;;;5.73;58.52;100414.66;5015599;28;20022;-83
2022/03/03 06:58:02;;;;;;;20.30;13.00;;;;;;;5.74;58.71;100443.06;5014160;28;20021;-83
2022/03/03 07:00:34;;;;;;;20.42;11.90;;;;;;;5.72;58.73;100444.97;5019064;28;20550;-82
2022/03/03 07:03:04;;;;;;;26.00;12.35;;;;;;;5.69;59.26;100434.50;5023673;28;20105;-83
2022/03/03 07:05:30;;;;;;;21.60;12.73;;;;;;;5.76;59.38;100442.00;5018774;28;20489;-81
2022/03/03 07:07:57;;;;;;;28.88;13.38;;;;;;;5.86;59.29;100452.97;5017767;28;20034;-83
2022/03/03 07:10:25;;;;;;;21.98;11.07;;;;;;;5.95;59.61;100465.72;5016751;28;20025;-82
2022/03/03 07:12:59;;;;;;;20.55;12.35;;;;;;;5.78;59.33;100449.91;5018341;28;20022;-82
2022/03/03 07:15:25;;;;;;;29.48;13.10;;;;;;;5.87;59.53;100471.53;5014583;28;20045;-78
2022/03/03 07:18:02;;;;;;;31.58;17.98;;;;;;;5.79;59.74;100464.94;5014390;28;20408;-78
2022/03/03 07:20:33;;;;;;;34.53;22.88;;;;;;;5.90;59.86;100470.50;5012937;28;20040;-79
2022/03/03 07:23:07;;;;;;;32.90;17.83;;;;;;;6.00;60.45;100474.25;5014563;28;20053;-78
2022/03/03 07:25:48;;;;;;;25.02;14.55;;;;;;;6.05;60.20;100474.84;5013262;28;20403;-79
2022/03/03 07:28:14;;;;;;;22.38;14.45;;;;;;;6.07;59.75;100472.91;5015136;28;20040;-82
2022/03/03 07:30:42;;;;;;;22.17;14.13;;;;;;;6.14;60.02;100468.91;5014006;28;20049;-81
2022/03/03 07:33:48;;;;;;;23.42;14.70;;;;;;;6.21;59.80;100464.84;5014657;28;20036;-80
2022/03/03 07:36:18;;;;;;;45.67;22.10;;;;;;;6.32;60.04;100465.00;5012899;28;20042;-77
2022/03/03 07:38:55;;;;;;;38.67;15.32;;;;;;;6.38;59.58;100471.75;5014408;28;20040;-77
2022/03/03 07:41:21;;;;;;;22.52;13.95;;;;;;;6.42;59.65;100471.44;5014345;28;20521;-79
2022/03/03 07:43:48;;;;;;;32.90;14.52;;;;;;;6.42;59.21;100473.28;5014618;28;20038;-76
2022/03/03 07:46:14;;;;;;;25.38;15.27;;;;;;;6.41;59.62;100477.75;5014556;28;20076;-79
2022/03/03 07:48:44;;;;;;;31.67;14.02;;;;;;;6.46;59.79;100475.63;5012614;28;20029;-78
2022/03/03 07:51:11;;;;;;;23.38;15.85;;;;;;;6.47;59.92;100477.34;5012328;28;20026;-77
2022/03/03 07:53:56;;;;;;;37.83;14.93;;;;;;;6.48;59.64;100472.88;5013724;28;20099;-76
2022/03/03 07:59:13;;;;;;;25.85;15.20;;;;;;;6.29;60.50;100467.03;4991600;28;20128;-75
2022/03/03 08:01:39;;;;;;;36.55;17.90;;;;;;;6.35;60.79;100482.66;4992479;28;20054;-75
2022/03/03 08:04:05;;;;;;;44.58;21.67;;;;;;;6.40;60.86;100476.03;4993571;28;20054;-75
2022/03/03 08:06:32;;;;;;;38.33;18.35;;;;;;;6.46;60.59;100475.63;4993772;28;20492;-74
2022/03/03 08:09:01;;;;;;;30.45;16.80;;;;;;;6.55;60.62;100464.31;4993395;28;20062;-76
2022/03/03 08:11:28;;;;;;;25.10;15.73;;;;;;;6.82;60.43;100466.94;4992075;28;20096;-77
2022/03/03 08:13:55;;;;;;;33.22;16.58;;;;;;;6.91;59.58;100471.63;4993516;28;20034;-78
2022/03/03 08:16:20;;;;;;;48.85;18.90;;;;;;;7.02;59.54;100470.91;4993558;28;20201;-74
2022/03/03 08:18:47;;;;;;;37.63;18.20;;;;;;;7.14;58.83;100464.72;4993370;28;20068;-76
2022/03/03 08:21:14;;;;;;;34.83;15.82;;;;;;;7.11;58.88;100472.94;4992743;28;20057;-79
2022/03/03 08:23:44;;;;;;;34.28;18.42;;;;;;;7.03;58.63;100473.47;4993440;28;20054;-74
2022/03/03 08:26:12;;;;;;;36.60;19.88;;;;;;;7.08;59.09;100478.50;4993721;28;20477;-73
2022/03/03 08:28:41;;;;;;;64.68;29.77;;;;;;;7.04;59.01;100471.66;4992956;28;20037;-73
2022/03/03 08:31:07;;;;;;;70.80;43.42;;;;;;;7.13;59.10;100487.06;4992800;28;20488;-74
2022/03/03 08:33:40;;;;;;;56.53;27.95;;;;;;;7.15;59.16;100476.28;4992659;28;20030;-74
2022/03/03 08:36:15;;;;;;;43.13;20.73;;;;;;;7.15;59.32;100482.47;4991496;28;20041;-75
2022/03/03 08:38:46;;;;;;;45.75;20.65;;;;;;;7.13;58.69;100485.25;4992222;28;20496;-75
2022/03/03 08:41:13;;;;;;;31.63;18.13;;;;;;;7.08;58.88;100479.38;4992909;28;20034;-75
2022/03/03 08:43:41;;;;;;;26.70;17.33;;;;;;;7.04;59.06;100483.22;4992389;28;20061;-75
2022/03/03 08:46:07;;;;;;;32.53;18.13;;;;;;;6.99;59.55;100472.00;4991964;28;20062;-74
2022/03/03 08:48:34;;;;;;;26.88;17.38;;;;;;;7.00;59.62;100475.53;4991007;28;20523;-74
2022/03/03 08:51:02;;;;;;;26.17;16.88;;;;;;;6.87;59.92;100475.50;4992193;28;20030;-75
2022/03/03 08:53:28;;;;;;;86.90;20.95;;;;;;;6.82;60.00;100476.78;4992151;28;20460;-74
2022/03/03 08:56:00;;;;;;;30.05;19.10;;;;;;;6.88;60.59;100476.38;4992330;28;20030;-74
2022/03/03 08:58:26;;;;;;;;;;;;;;;6.95;60.79;100483.84;4992317;28;20164;-74
2022/03/03 09:00:52;;;;;;;31.17;18.83;;;;;;;6.86;60.76;100478.28;4992303;28;20372;-75
2022/03/03 09:03:21;;;;;;;36.20;21.10;;;;;;;6.83;60.75;100484.69;4992389;28;20033;-74
2022/03/03 09:05:48;;;;;;;34.60;17.63;;;;;;;6.93;61.03;100479.56;4992174;28;20041;-74
2022/03/03 09:08:13;;;;;;;31.90;19.77;;;;;;;7.10;60.97;100471.22;4991939;28;20042;-75
2022/03/03 09:10:40;;;;;;;60.67;28.77;;;;;;;7.23;60.33;100477.44;4992114;28;20496;-75
2022/03/03 09:13:06;;;;;;;25.42;16.88;;;;;;;7.39;59.82;100469.19;4992069;28;20041;-74
2022/03/03 09:15:33;;;;;;;29.05;15.65;;;;;;;7.61;58.98;100466.72;4992154;28;20512;-74
2022/03/03 09:18:00;;;;;;;45.17;20.15;;;;;;;7.71;57.94;100474.91;4990656;28;20019;-74
2022/03/03 09:20:26;;;;;;;33.45;20.38;;;;;;;7.81;57.55;100468.78;4991897;28;20570;-74
2022/03/03 09:22:53;;;;;;;26.42;17.27;;;;;;;7.84;57.51;100463.22;4991808;28;20049;-74
2022/03/03 09:25:20;;;;;;;26.48;15.05;;;;;;;8.00;57.04;100457.59;4990332;28;20485;-74
2022/03/03 09:27:45;;;;;;;26.85;17.15;;;;;;;7.98;56.74;100454.19;4990519;28;20033;-74
2022/03/03 09:30:12;;;;;;;23.85;15.13;;;;;;;8.04;56.44;100467.13;4991768;28;20022;-74
2022/03/03 09:32:38;;;;;;;29.10;15.05;;;;;;;8.00;56.31;100462.97;4991775;28;20046;-73
2022/03/03 09:35:05;;;;;;;27.88;11.20;;;;;;;8.06;55.86;100462.50;4990497;28;20033;-75
2022/03/03 09:37:30;;;;;;;19.80;12.45;;;;;;;8.19;55.12;100474.88;4990461;28;20084;-74
2022/03/03 09:39:56;;;;;;;19.83;11.38;;;;;;;8.26;55.00;100475.28;4991592;28;20105;-74
2022/03/03 09:42:21;;;;;;;27.95;11.88;;;;;;;8.15;53.60;100472.53;4990314;28;20512;-75
2022/03/03 09:44:47;;;;;;;23.33;12.20;;;;;;;8.30;53.71;100462.53;4991860;28;20066;-75
2022/03/03 09:47:14;;;;;;;16.83;11.73;;;;;;;8.42;53.35;100459.81;4990005;28;20049;-75
2022/03/03 09:49:40;;;;;;;22.45;11.60;;;;;;;8.26;53.30;100464.56;4990177;28;20034;-74
2022/03/03 09:52:13;;;;;;;15.32;11.15;;;;;;;8.19;52.80;100458.78;4991584;28;20386;-74
2022/03/03 09:54:40;;;;;;;19.50;12.63;;;;;;;8.32;52.86;100453.41;4990166;28;20077;-76
2022/03/03 09:57:05;;;;;;;19.17;12.68;;;;;;;8.38;52.67;100450.28;4991615;28;20050;-75
2022/03/03 09:59:31;;;;;;;22.58;11.50;;;;;;;8.48;52.97;100453.13;4991770;28;20458;-75
2022/03/03 10:02:05;;;;;;;15.27;10.02;;;;;;;8.41;51.87;100436.66;4990575;28;20121;-74
2022/03/03 10:04:31;;;;;;;14.30;9.82;;;;;;;8.53;51.91;100445.59;4991477;28;20535;-75
2022/03/03 10:07:02;;;;;;;19.30;10.98;;;;;;;8.60;51.89;100438.78;4989859;28;20515;-74
2022/03/03 10:09:27;;;;;;;17.08;12.60;;;;;;;8.62;52.08;100435.00;4991634;28;20026;-76
2022/03/03 10:12:03;;;;;;;16.52;10.95;;;;;;;8.67;51.90;100437.34;4995236;28;20116;-74
2022/03/03 10:14:32;;;;;;;15.27;10.60;;;;;;;8.64;51.94;100443.81;4995214;28;20033;-73
2022/03/03 10:16:58;;;;;;;20.02;9.38;;;;;;;8.70;51.44;100439.81;4995169;28;20018;-74
2022/03/03 10:19:24;;;;;;;19.40;10.25;;;;;;;8.65;51.12;100433.94;4993804;28;20405;-74
2022/03/03 10:21:49;;;;;;;17.23;9.43;;;;;;;8.65;50.98;100436.63;4995152;28;20033;-75
2022/03/03 10:24:16;;;;;;;17.10;10.25;;;;;;;8.71;51.69;100433.47;4995259;28;20106;-74
2022/03/03 10:26:42;;;;;;;15.80;10.35;;;;;;;8.63;51.29;100436.72;4994918;28;20520;-74
2022/03/03 10:29:21;;;;;;;13.82;8.00;;;;;;;8.48;51.41;100431.69;4996569;28;20030;-74
2022/03/03 10:31:50;;;;;;;18.05;10.05;;;;;;;8.45;51.56;100430.09;4993544;28;20555;-74
2022/03/03 10:34:20;;;;;;;13.10;8.50;;;;;;;8.49;51.65;100426.22;4994836;28;20109;-74
2022/03/03 10:37:01;;;;;;;9.70;7.57;;;;;;;8.49;51.94;100423.53;4993555;28;20102;-75
2022/03/03 10:39:48;;;;;;;21.55;8.52;;;;;;;8.62;51.99;100431.50;4994835;28;20030;-75
2022/03/03 10:42:22;;;;;;;15.57;10.10;;;;;;;8.63;51.69;100435.88;4994795;28;20092;-75
2022/03/03 10:44:50;;;;;;;15.10;9.90;;;;;;;8.59;52.16;100419.16;4993807;28;20026;-74
2022/03/03 10:47:18;;;;;;;13.27;8.98;;;;;;;8.59;51.58;100427.22;4994424;28;20061;-74
2022/03/03 10:49:46;;;;;;;29.20;10.10;;;;;;;8.81;51.58;100429.09;4995557;28;20053;-74
2022/03/03 10:52:13;;;;;;;31.45;10.93;;;;;;;8.93;52.33;100430.00;4994928;28;20530;-74
2022/03/03 10:54:58;;;;;;;16.35;11.05;;;;;;;9.01;51.17;100417.69;4994770;28;20033;-74
2022/03/03 10:57:39;;;;;;;19.60;9.38;;;;;;;8.93;51.67;100420.09;4993809;28;20019;-74
2022/03/03 11:00:16;;;;;;;17.13;10.88;;;;;;;9.23;51.41;100416.84;4993496;28;20030;-74
2022/03/03 11:02:53;;;;;;;15.73;10.52;;;;;;;9.29;50.78;100414.50;4994431;28;20030;-75
2022/03/03 11:05:21;;;;;;;18.50;10.13;;;;;;;9.35;50.18;100413.19;4994439;28;20114;-75
2022/03/03 11:07:48;;;;;;;17.58;9.07;;;;;;;9.40;49.79;100410.13;4994417;28;20043;-75
2022/03/03 11:10:21;;;;;;;18.25;9.38;;;;;;;9.49;50.89;100402.19;4994370;28;20109;-75
2022/03/03 11:12:48;;;;;;;14.27;8.95;;;;;;;9.46;49.87;100407.81;4994257;28;20030;-74
2022/03/03 11:15:15;;;;;;;23.90;10.88;;;;;;;9.49;49.63;100420.13;4993942;28;20026;-74
2022/03/03 11:17:42;;;;;;;14.68;9.88;;;;;;;9.66;49.20;100407.03;4993948;28;20029;-75
2022/03/03 11:20:11;;;;;;;23.40;13.27;;;;;;;9.64;48.82;100411.69;4993445;28;20027;-75
2022/03/03 11:22:38;;;;;;;36.45;12.88;;;;;;;9.56;49.34;100416.84;4993641;28;20057;-74